sensor_id;sensor_type;location;lat;lon;timestamp;P1;durP1;ratioP1;P2;durP2;ratioP2
26181;SDS011;13927;51.534;11.866;2022-09-12T00:00:03;14.45;;;11.65;;
26181;SDS011;13927;51.534;11.866;2022-09-12T00:02:30;12.95;;;10.82;;
26181;SDS011;13927;51.534;11.866;2022-09-12T00:04:56;11.93;;;10.38;;
26181;SDS011;13927;51.534;11.866;2022-09-12T00:07:22;13.90;;;11.25;;
26181;SDS011;13927;51.534;11.866;2022-09-12T00:09:48;12.25;;;10.93;;
26181;SDS011;13927;51.534;11.866;2022-09-12T00:12:13;11.38;;;10.18;;
26181;SDS011;13927;51.534;11.866;2022-09-12T00:14:39;11.95;;;10.55;;
26181;SDS011;13927;51.534;11.866;2022-09-12T00:17:05;15.52;;;11.43;;
26181;SDS011;13927;51.534;11.866;2022-09-12T00:19:31;15.65;;;11.27;;
26181;SDS011;13927;51.534;11.866;2022-09-12T00:21:56;15.23;;;11.55;;
26181;SDS011;13927;51.534;11.866;2022-09-12T00:24:22;14.30;;;11.00;;
26181;SDS011;13927;51.534;11.866;2022-09-12T00:26:48;14.93;;;11.95;;
26181;SDS011;13927;51.534;11.866;2022-09-12T00:29:18;14.02;;;11.82;;
26181;SDS011;13927;51.534;11.866;2022-09-12T00:31:45;11.68;;;10.40;;
26181;SDS011;13927;51.534;11.866;2022-09-12T00:34:11;13.15;;;10.65;;
26181;SDS011;13927;51.534;11.866;2022-09-12T00:36:37;15.02;;;11.48;;
26181;SDS011;13927;51.534;11.866;2022-09-12T00:39:04;14.60;;;11.32;;
26181;SDS011;13927;51.534;11.866;2022-09-12T00:41:32;13.30;;;10.85;;
26181;SDS011;13927;51.534;11.866;2022-09-12T00:44:49;15.35;;;11.70;;
26181;SDS011;13927;51.534;11.866;2022-09-12T00:55:16;14.35;;;11.18;;
26181;SDS011;13927;51.534;11.866;2022-09-12T01:00:15;16.05;;;12.43;;
26181;SDS011;13927;51.534;11.866;2022-09-12T01:02:45;15.80;;;11.35;;
26181;SDS011;13927;51.534;11.866;2022-09-12T01:05:15;13.88;;;10.80;;
26181;SDS011;13927;51.534;11.866;2022-09-12T01:07:41;13.35;;;11.27;;
26181;SDS011;13927;51.534;11.866;2022-09-12T01:10:12;14.52;;;10.65;;
26181;SDS011;13927;51.534;11.866;2022-09-12T01:12:39;15.80;;;11.25;;
26181;SDS011;13927;51.534;11.866;2022-09-12T01:15:06;15.25;;;11.10;;
26181;SDS011;13927;51.534;11.866;2022-09-12T01:17:36;13.27;;;11.20;;
26181;SDS011;13927;51.534;11.866;2022-09-12T01:41:51;12.52;;;9.82;;
26181;SDS011;13927;51.534;11.866;2022-09-12T01:47:10;12.55;;;10.80;;
26181;SDS011;13927;51.534;11.866;2022-09-12T01:50:02;14.43;;;11.35;;
26181;SDS011;13927;51.534;11.866;2022-09-12T01:52:49;14.80;;;11.05;;
26181;SDS011;13927;51.534;11.866;2022-09-12T01:58:21;13.95;;;11.63;;
26181;SDS011;13927;51.534;11.866;2022-09-12T02:03:28;14.85;;;11.52;;
26181;SDS011;13927;51.534;11.866;2022-09-12T02:06:06;13.30;;;10.55;;
26181;SDS011;13927;51.534;11.866;2022-09-12T02:08:41;13.88;;;10.63;;
26181;SDS011;13927;51.534;11.866;2022-09-12T02:11:12;16.17;;;11.85;;
26181;SDS011;13927;51.534;11.866;2022-09-12T02:13:42;13.05;;;11.65;;
26181;SDS011;13927;51.534;11.866;2022-09-12T02:16:15;15.95;;;11.32;;
26181;SDS011;13927;51.534;11.866;2022-09-12T02:18:52;13.50;;;11.55;;
26181;SDS011;13927;51.534;11.866;2022-09-12T02:21:24;14.13;;;11.40;;
26181;SDS011;13927;51.534;11.866;2022-09-12T02:23:54;13.35;;;10.98;;
26181;SDS011;13927;51.534;11.866;2022-09-12T02:26:31;15.15;;;11.77;;
26181;SDS011;13927;51.534;11.866;2022-09-12T02:29:02;14.88;;;11.80;;
26181;SDS011;13927;51.534;11.866;2022-09-12T02:39:53;13.95;;;12.30;;
26181;SDS011;13927;51.534;11.866;2022-09-12T02:42:21;18.13;;;13.05;;
26181;SDS011;13927;51.534;11.866;2022-09-12T02:44:48;14.00;;;12.50;;
26181;SDS011;13927;51.534;11.866;2022-09-12T02:47:18;16.88;;;12.68;;
26181;SDS011;13927;51.534;11.866;2022-09-12T02:49:59;17.10;;;13.48;;
26181;SDS011;13927;51.534;11.866;2022-09-12T02:52:26;14.23;;;11.38;;
26181;SDS011;13927;51.534;11.866;2022-09-12T02:54:52;13.07;;;11.43;;
26181;SDS011;13927;51.534;11.866;2022-09-12T02:57:20;15.60;;;12.05;;
26181;SDS011;13927;51.534;11.866;2022-09-12T02:59:46;19.15;;;12.77;;
26181;SDS011;13927;51.534;11.866;2022-09-12T03:08:37;15.57;;;13.10;;
26181;SDS011;13927;51.534;11.866;2022-09-12T03:11:30;15.25;;;12.10;;
26181;SDS011;13927;51.534;11.866;2022-09-12T03:14:33;13.57;;;11.02;;
26181;SDS011;13927;51.534;11.866;2022-09-12T03:17:28;13.00;;;11.18;;
26181;SDS011;13927;51.534;11.866;2022-09-12T03:23:10;16.13;;;11.20;;
26181;SDS011;13927;51.534;11.866;2022-09-12T03:25:56;13.75;;;11.35;;
26181;SDS011;13927;51.534;11.866;2022-09-12T03:28:30;15.32;;;12.18;;
26181;SDS011;13927;51.534;11.866;2022-09-12T03:30:58;15.50;;;12.40;;
26181;SDS011;13927;51.534;11.866;2022-09-12T03:33:24;14.68;;;12.45;;
26181;SDS011;13927;51.534;11.866;2022-09-12T03:35:50;14.43;;;11.60;;
26181;SDS011;13927;51.534;11.866;2022-09-12T03:38:17;15.63;;;12.68;;
26181;SDS011;13927;51.534;11.866;2022-09-12T03:40:44;17.27;;;11.95;;
26181;SDS011;13927;51.534;11.866;2022-09-12T03:43:10;17.50;;;13.55;;
26181;SDS011;13927;51.534;11.866;2022-09-12T03:45:36;13.80;;;11.93;;
26181;SDS011;13927;51.534;11.866;2022-09-12T03:48:03;17.90;;;12.38;;
26181;SDS011;13927;51.534;11.866;2022-09-12T03:50:30;13.52;;;10.85;;
26181;SDS011;13927;51.534;11.866;2022-09-12T03:52:57;16.65;;;11.75;;
26181;SDS011;13927;51.534;11.866;2022-09-12T03:55:24;15.85;;;12.43;;
26181;SDS011;13927;51.534;11.866;2022-09-12T03:57:51;14.20;;;11.40;;
26181;SDS011;13927;51.534;11.866;2022-09-12T04:00:18;15.07;;;11.98;;
26181;SDS011;13927;51.534;11.866;2022-09-12T04:02:44;15.48;;;13.13;;
26181;SDS011;13927;51.534;11.866;2022-09-12T04:05:10;13.13;;;10.85;;
26181;SDS011;13927;51.534;11.866;2022-09-12T04:07:35;15.63;;;10.43;;
26181;SDS011;13927;51.534;11.866;2022-09-12T04:10:01;13.93;;;10.82;;
26181;SDS011;13927;51.534;11.866;2022-09-12T04:12:28;63.70;;;7.93;;
26181;SDS011;13927;51.534;11.866;2022-09-12T04:14:54;20.60;;;11.32;;
26181;SDS011;13927;51.534;11.866;2022-09-12T04:17:20;21.08;;;13.15;;
26181;SDS011;13927;51.534;11.866;2022-09-12T04:19:46;18.60;;;13.90;;
26181;SDS011;13927;51.534;11.866;2022-09-12T04:22:11;23.38;;;15.80;;
26181;SDS011;13927;51.534;11.866;2022-09-12T04:24:37;31.30;;;15.15;;
26181;SDS011;13927;51.534;11.866;2022-09-12T04:27:03;20.90;;;14.75;;
26181;SDS011;13927;51.534;11.866;2022-09-12T04:29:28;17.83;;;12.85;;
26181;SDS011;13927;51.534;11.866;2022-09-12T04:31:55;16.08;;;13.00;;
26181;SDS011;13927;51.534;11.866;2022-09-12T04:34:21;15.13;;;10.60;;
26181;SDS011;13927;51.534;11.866;2022-09-12T04:36:47;11.52;;;10.20;;
26181;SDS011;13927;51.534;11.866;2022-09-12T04:39:13;11.52;;;10.32;;
26181;SDS011;13927;51.534;11.866;2022-09-12T04:41:39;16.30;;;11.60;;
26181;SDS011;13927;51.534;11.866;2022-09-12T04:44:10;11.95;;;10.65;;
26181;SDS011;13927;51.534;11.866;2022-09-12T04:46:38;13.00;;;9.88;;
26181;SDS011;13927;51.534;11.866;2022-09-12T04:49:08;15.57;;;11.48;;
26181;SDS011;13927;51.534;11.866;2022-09-12T04:51:36;18.85;;;11.00;;
26181;SDS011;13927;51.534;11.866;2022-09-12T04:54:12;21.42;;;10.50;;
26181;SDS011;13927;51.534;11.866;2022-09-12T04:56:41;11.30;;;9.85;;
26181;SDS011;13927;51.534;11.866;2022-09-12T04:59:10;13.90;;;11.32;;
26181;SDS011;13927;51.534;11.866;2022-09-12T05:01:38;14.05;;;11.93;;
26181;SDS011;13927;51.534;11.866;2022-09-12T05:04:04;16.35;;;12.05;;
26181;SDS011;13927;51.534;11.866;2022-09-12T05:06:31;16.13;;;12.18;;
26181;SDS011;13927;51.534;11.866;2022-09-12T05:08:59;16.27;;;12.52;;
26181;SDS011;13927;51.534;11.866;2022-09-12T05:11:27;13.45;;;11.27;;
26181;SDS011;13927;51.534;11.866;2022-09-12T05:13:56;10.55;;;8.80;;
26181;SDS011;13927;51.534;11.866;2022-09-12T05:16:22;9.85;;;7.68;;
26181;SDS011;13927;51.534;11.866;2022-09-12T05:18:51;12.10;;;9.68;;
26181;SDS011;13927;51.534;11.866;2022-09-12T05:21:18;12.60;;;10.68;;
26181;SDS011;13927;51.534;11.866;2022-09-12T05:23:49;12.82;;;10.95;;
26181;SDS011;13927;51.534;11.866;2022-09-12T05:26:16;58.33;;;8.45;;
26181;SDS011;13927;51.534;11.866;2022-09-12T05:28:44;16.10;;;9.10;;
26181;SDS011;13927;51.534;11.866;2022-09-12T05:31:12;184.25;;;18.30;;
26181;SDS011;13927;51.534;11.866;2022-09-12T05:33:44;113.78;;;15.38;;
26181;SDS011;13927;51.534;11.866;2022-09-12T05:36:13;69.82;;;12.82;;
26181;SDS011;13927;51.534;11.866;2022-09-12T05:38:43;22.40;;;11.30;;
26181;SDS011;13927;51.534;11.866;2022-09-12T05:41:10;14.20;;;10.70;;
26181;SDS011;13927;51.534;11.866;2022-09-12T05:43:40;13.70;;;11.45;;
26181;SDS011;13927;51.534;11.866;2022-09-12T05:46:08;14.65;;;12.02;;
26181;SDS011;13927;51.534;11.866;2022-09-12T05:48:37;18.80;;;13.68;;
26181;SDS011;13927;51.534;11.866;2022-09-12T05:51:06;15.82;;;12.43;;
26181;SDS011;13927;51.534;11.866;2022-09-12T05:53:44;17.02;;;13.98;;
26181;SDS011;13927;51.534;11.866;2022-09-12T05:56:16;19.92;;;14.57;;
26181;SDS011;13927;51.534;11.866;2022-09-12T05:58:45;17.30;;;13.93;;
26181;SDS011;13927;51.534;11.866;2022-09-12T06:01:16;18.95;;;14.75;;
26181;SDS011;13927;51.534;11.866;2022-09-12T06:06:12;19.27;;;13.60;;
26181;SDS011;13927;51.534;11.866;2022-09-12T06:08:42;20.10;;;14.55;;
26181;SDS011;13927;51.534;11.866;2022-09-12T06:11:14;16.92;;;14.38;;
26181;SDS011;13927;51.534;11.866;2022-09-12T06:13:45;15.43;;;12.57;;
26181;SDS011;13927;51.534;11.866;2022-09-12T06:16:12;18.42;;;14.75;;
26181;SDS011;13927;51.534;11.866;2022-09-12T06:18:47;17.25;;;13.23;;
26181;SDS011;13927;51.534;11.866;2022-09-12T06:21:15;17.60;;;13.77;;
26181;SDS011;13927;51.534;11.866;2022-09-12T06:23:41;18.63;;;14.25;;
26181;SDS011;13927;51.534;11.866;2022-09-12T06:26:10;17.35;;;14.52;;
26181;SDS011;13927;51.534;11.866;2022-09-12T06:28:39;18.48;;;15.32;;
26181;SDS011;13927;51.534;11.866;2022-09-12T06:31:12;18.77;;;15.18;;
26181;SDS011;13927;51.534;11.866;2022-09-12T06:37:21;16.25;;;13.60;;
26181;SDS011;13927;51.534;11.866;2022-09-12T06:39:47;17.10;;;13.65;;
26181;SDS011;13927;51.534;11.866;2022-09-12T06:42:13;18.08;;;14.63;;
26181;SDS011;13927;51.534;11.866;2022-09-12T06:44:39;18.27;;;14.40;;
26181;SDS011;13927;51.534;11.866;2022-09-12T06:47:05;21.08;;;14.65;;
26181;SDS011;13927;51.534;11.866;2022-09-12T06:49:31;18.58;;;14.10;;
26181;SDS011;13927;51.534;11.866;2022-09-12T06:51:57;17.17;;;13.57;;
26181;SDS011;13927;51.534;11.866;2022-09-12T06:54:23;18.17;;;14.90;;
26181;SDS011;13927;51.534;11.866;2022-09-12T06:56:50;17.27;;;12.98;;
26181;SDS011;13927;51.534;11.866;2022-09-12T06:59:16;14.98;;;12.95;;
26181;SDS011;13927;51.534;11.866;2022-09-12T07:01:42;14.20;;;12.70;;
26181;SDS011;13927;51.534;11.866;2022-09-12T07:04:07;18.20;;;14.68;;
26181;SDS011;13927;51.534;11.866;2022-09-12T07:06:38;15.23;;;12.77;;
26181;SDS011;13927;51.534;11.866;2022-09-12T07:09:06;16.05;;;13.32;;
26181;SDS011;13927;51.534;11.866;2022-09-12T07:11:36;14.95;;;12.45;;
26181;SDS011;13927;51.534;11.866;2022-09-12T07:14:03;15.10;;;13.02;;
26181;SDS011;13927;51.534;11.866;2022-09-12T07:16:31;15.90;;;13.13;;
26181;SDS011;13927;51.534;11.866;2022-09-12T07:19:00;14.75;;;12.15;;
26181;SDS011;13927;51.534;11.866;2022-09-12T07:21:27;14.75;;;11.50;;
26181;SDS011;13927;51.534;11.866;2022-09-12T07:23:53;16.80;;;12.60;;
26181;SDS011;13927;51.534;11.866;2022-09-12T07:26:21;13.63;;;12.23;;
26181;SDS011;13927;51.534;11.866;2022-09-12T07:28:54;14.32;;;12.68;;
26181;SDS011;13927;51.534;11.866;2022-09-12T07:31:23;14.20;;;12.43;;
26181;SDS011;13927;51.534;11.866;2022-09-12T07:33:51;13.32;;;11.93;;
26181;SDS011;13927;51.534;11.866;2022-09-12T07:36:19;14.13;;;12.05;;
26181;SDS011;13927;51.534;11.866;2022-09-12T07:38:47;12.52;;;10.65;;
26181;SDS011;13927;51.534;11.866;2022-09-12T07:41:52;13.80;;;11.48;;
26181;SDS011;13927;51.534;11.866;2022-09-12T07:44:19;13.18;;;11.52;;
26181;SDS011;13927;51.534;11.866;2022-09-12T07:46:46;12.00;;;10.73;;
26181;SDS011;13927;51.534;11.866;2022-09-12T07:49:12;11.07;;;9.88;;
26181;SDS011;13927;51.534;11.866;2022-09-12T07:51:37;12.55;;;10.75;;
26181;SDS011;13927;51.534;11.866;2022-09-12T07:54:06;13.32;;;11.18;;
26181;SDS011;13927;51.534;11.866;2022-09-12T07:56:46;12.25;;;10.95;;
26181;SDS011;13927;51.534;11.866;2022-09-12T07:59:12;13.45;;;11.32;;
26181;SDS011;13927;51.534;11.866;2022-09-12T08:01:38;12.10;;;10.80;;
26181;SDS011;13927;51.534;11.866;2022-09-12T08:17:34;12.27;;;11.05;;
26181;SDS011;13927;51.534;11.866;2022-09-12T08:20:00;11.75;;;10.65;;
26181;SDS011;13927;51.534;11.866;2022-09-12T08:22:28;11.68;;;10.32;;
26181;SDS011;13927;51.534;11.866;2022-09-12T08:27:24;11.32;;;9.40;;
26181;SDS011;13927;51.534;11.866;2022-09-12T08:29:50;11.68;;;9.63;;
26181;SDS011;13927;51.534;11.866;2022-09-12T08:32:15;9.75;;;8.52;;
26181;SDS011;13927;51.534;11.866;2022-09-12T08:34:41;10.73;;;9.63;;
26181;SDS011;13927;51.534;11.866;2022-09-12T08:37:07;9.48;;;8.57;;
26181;SDS011;13927;51.534;11.866;2022-09-12T08:39:45;8.50;;;7.57;;
26181;SDS011;13927;51.534;11.866;2022-09-12T08:42:15;8.15;;;7.35;;
26181;SDS011;13927;51.534;11.866;2022-09-12T08:45:07;7.95;;;6.47;;
26181;SDS011;13927;51.534;11.866;2022-09-12T08:48:16;8.63;;;7.20;;
26181;SDS011;13927;51.534;11.866;2022-09-12T08:50:42;9.57;;;7.20;;
26181;SDS011;13927;51.534;11.866;2022-09-12T08:53:11;7.45;;;6.72;;
26181;SDS011;13927;51.534;11.866;2022-09-12T08:55:44;7.75;;;5.45;;
26181;SDS011;13927;51.534;11.866;2022-09-12T08:58:23;4.55;;;4.15;;
26181;SDS011;13927;51.534;11.866;2022-09-12T09:04:15;7.47;;;4.72;;
26181;SDS011;13927;51.534;11.866;2022-09-12T09:07:21;5.90;;;5.30;;
26181;SDS011;13927;51.534;11.866;2022-09-12T09:12:51;4.68;;;4.18;;
26181;SDS011;13927;51.534;11.866;2022-09-12T09:18:28;5.30;;;4.20;;
26181;SDS011;13927;51.534;11.866;2022-09-12T09:21:01;4.23;;;3.70;;
26181;SDS011;13927;51.534;11.866;2022-09-12T09:23:43;3.55;;;2.78;;
26181;SDS011;13927;51.534;11.866;2022-09-12T09:29:32;3.80;;;3.22;;
26181;SDS011;13927;51.534;11.866;2022-09-12T09:32:09;3.88;;;3.45;;
26181;SDS011;13927;51.534;11.866;2022-09-12T09:34:55;4.68;;;3.00;;
26181;SDS011;13927;51.534;11.866;2022-09-12T09:37:27;4.53;;;3.25;;
26181;SDS011;13927;51.534;11.866;2022-09-12T09:40:31;5.30;;;3.27;;
26181;SDS011;13927;51.534;11.866;2022-09-12T09:43:19;5.05;;;3.28;;
26181;SDS011;13927;51.534;11.866;2022-09-12T09:45:48;3.75;;;3.03;;
26181;SDS011;13927;51.534;11.866;2022-09-12T09:48:20;3.53;;;2.58;;
26181;SDS011;13927;51.534;11.866;2022-09-12T09:50:50;6.18;;;3.30;;
26181;SDS011;13927;51.534;11.866;2022-09-12T09:53:30;3.03;;;2.58;;
26181;SDS011;13927;51.534;11.866;2022-09-12T09:56:12;2.55;;;1.98;;
26181;SDS011;13927;51.534;11.866;2022-09-12T09:59:07;3.70;;;1.83;;
26181;SDS011;13927;51.534;11.866;2022-09-12T10:01:35;2.25;;;1.83;;
26181;SDS011;13927;51.534;11.866;2022-09-12T10:04:08;3.30;;;2.00;;
26181;SDS011;13927;51.534;11.866;2022-09-12T10:06:53;2.90;;;1.63;;
26181;SDS011;13927;51.534;11.866;2022-09-12T10:09:24;2.57;;;1.70;;
26181;SDS011;13927;51.534;11.866;2022-09-12T10:11:53;3.25;;;1.45;;
26181;SDS011;13927;51.534;11.866;2022-09-12T10:25:59;2.22;;;1.70;;
26181;SDS011;13927;51.534;11.866;2022-09-12T10:28:32;3.28;;;1.30;;
26181;SDS011;13927;51.534;11.866;2022-09-12T10:31:03;2.25;;;1.42;;
26181;SDS011;13927;51.534;11.866;2022-09-12T10:33:39;2.92;;;1.75;;
26181;SDS011;13927;51.534;11.866;2022-09-12T10:36:19;2.10;;;1.77;;
26181;SDS011;13927;51.534;11.866;2022-09-12T10:38:55;2.08;;;1.70;;
26181;SDS011;13927;51.534;11.866;2022-09-12T10:41:24;1.98;;;1.55;;
26181;SDS011;13927;51.534;11.866;2022-09-12T10:43:50;3.47;;;1.85;;
26181;SDS011;13927;51.534;11.866;2022-09-12T10:48:42;3.50;;;2.10;;
26181;SDS011;13927;51.534;11.866;2022-09-12T10:51:29;2.75;;;1.80;;
26181;SDS011;13927;51.534;11.866;2022-09-12T10:53:55;2.13;;;1.75;;
26181;SDS011;13927;51.534;11.866;2022-09-12T11:04:39;2.03;;;1.80;;
26181;SDS011;13927;51.534;11.866;2022-09-12T11:17:39;3.22;;;1.90;;
26181;SDS011;13927;51.534;11.866;2022-09-12T11:24:06;2.92;;;1.65;;
26181;SDS011;13927;51.534;11.866;2022-09-12T11:30:10;2.40;;;1.80;;
26181;SDS011;13927;51.534;11.866;2022-09-12T11:35:48;7.47;;;2.03;;
26181;SDS011;13927;51.534;11.866;2022-09-12T11:41:25;2.47;;;1.45;;
26181;SDS011;13927;51.534;11.866;2022-09-12T11:44:00;2.53;;;1.65;;
26181;SDS011;13927;51.534;11.866;2022-09-12T11:46:43;1.70;;;1.60;;
26181;SDS011;13927;51.534;11.866;2022-09-12T11:54:37;2.92;;;1.90;;
26181;SDS011;13927;51.534;11.866;2022-09-12T12:08:37;1.50;;;1.40;;
26181;SDS011;13927;51.534;11.866;2022-09-12T12:11:05;2.30;;;1.60;;
26181;SDS011;13927;51.534;11.866;2022-09-12T12:13:34;3.63;;;1.92;;
26181;SDS011;13927;51.534;11.866;2022-09-12T12:16:36;1.67;;;1.30;;
26181;SDS011;13927;51.534;11.866;2022-09-12T12:21:42;1.73;;;1.52;;
26181;SDS011;13927;51.534;11.866;2022-09-12T12:26:54;1.73;;;1.35;;
26181;SDS011;13927;51.534;11.866;2022-09-12T12:35:41;2.40;;;1.70;;
26181;SDS011;13927;51.534;11.866;2022-09-12T12:38:32;2.08;;;1.40;;
26181;SDS011;13927;51.534;11.866;2022-09-12T12:46:13;3.25;;;1.52;;
26181;SDS011;13927;51.534;11.866;2022-09-12T12:54:32;4.20;;;1.60;;
26181;SDS011;13927;51.534;11.866;2022-09-12T13:02:51;2.30;;;1.80;;
26181;SDS011;13927;51.534;11.866;2022-09-12T13:05:54;2.72;;;1.48;;
26181;SDS011;13927;51.534;11.866;2022-09-12T13:08:30;2.13;;;1.50;;
26181;SDS011;13927;51.534;11.866;2022-09-12T13:11:09;1.93;;;1.50;;
26181;SDS011;13927;51.534;11.866;2022-09-12T13:13:46;1.42;;;1.33;;
26181;SDS011;13927;51.534;11.866;2022-09-12T13:16:30;1.60;;;1.50;;
26181;SDS011;13927;51.534;11.866;2022-09-12T13:19:24;1.90;;;1.70;;
26181;SDS011;13927;51.534;11.866;2022-09-12T13:22:04;2.00;;;1.80;;
26181;SDS011;13927;51.534;11.866;2022-09-12T13:24:32;2.50;;;1.80;;
26181;SDS011;13927;51.534;11.866;2022-09-12T13:26:59;1.98;;;1.80;;
26181;SDS011;13927;51.534;11.866;2022-09-12T13:29:26;1.67;;;1.30;;
26181;SDS011;13927;51.534;11.866;2022-09-12T13:32:01;1.77;;;1.58;;
26181;SDS011;13927;51.534;11.866;2022-09-12T13:34:30;1.73;;;1.63;;
26181;SDS011;13927;51.534;11.866;2022-09-12T13:37:20;2.45;;;1.83;;
26181;SDS011;13927;51.534;11.866;2022-09-12T13:40:15;2.92;;;1.73;;
26181;SDS011;13927;51.534;11.866;2022-09-12T13:43:07;2.10;;;1.80;;
26181;SDS011;13927;51.534;11.866;2022-09-12T13:45:40;2.88;;;1.60;;
26181;SDS011;13927;51.534;11.866;2022-09-12T13:48:13;2.55;;;1.67;;
26181;SDS011;13927;51.534;11.866;2022-09-12T13:53:21;2.00;;;1.40;;
26181;SDS011;13927;51.534;11.866;2022-09-12T13:55:54;2.17;;;1.30;;
26181;SDS011;13927;51.534;11.866;2022-09-12T13:58:24;1.73;;;1.40;;
26181;SDS011;13927;51.534;11.866;2022-09-12T14:01:00;3.33;;;1.58;;
26181;SDS011;13927;51.534;11.866;2022-09-12T14:03:33;2.80;;;1.60;;
26181;SDS011;13927;51.534;11.866;2022-09-12T14:06:22;2.53;;;1.60;;
26181;SDS011;13927;51.534;11.866;2022-09-12T14:08:50;2.80;;;1.70;;
26181;SDS011;13927;51.534;11.866;2022-09-12T14:11:23;2.95;;;1.50;;
26181;SDS011;13927;51.534;11.866;2022-09-12T14:13:52;2.25;;;1.40;;
26181;SDS011;13927;51.534;11.866;2022-09-12T14:16:20;14.00;;;2.78;;
26181;SDS011;13927;51.534;11.866;2022-09-12T14:18:47;8.57;;;1.50;;
26181;SDS011;13927;51.534;11.866;2022-09-12T14:21:34;2.60;;;1.30;;
26181;SDS011;13927;51.534;11.866;2022-09-12T14:24:02;3.75;;;1.50;;
26181;SDS011;13927;51.534;11.866;2022-09-12T14:26:36;1.98;;;1.35;;
26181;SDS011;13927;51.534;11.866;2022-09-12T14:29:05;1.95;;;1.48;;
26181;SDS011;13927;51.534;11.866;2022-09-12T14:31:36;2.65;;;1.55;;
26181;SDS011;13927;51.534;11.866;2022-09-12T14:36:50;1.77;;;1.20;;
26181;SDS011;13927;51.534;11.866;2022-09-12T14:39:22;1.90;;;1.60;;
26181;SDS011;13927;51.534;11.866;2022-09-12T14:42:05;4.95;;;1.77;;
26181;SDS011;13927;51.534;11.866;2022-09-12T14:45:03;2.53;;;1.40;;
26181;SDS011;13927;51.534;11.866;2022-09-12T14:47:47;2.42;;;1.33;;
26181;SDS011;13927;51.534;11.866;2022-09-12T14:50:15;2.03;;;1.38;;
26181;SDS011;13927;51.534;11.866;2022-09-12T14:52:44;3.53;;;1.50;;
26181;SDS011;13927;51.534;11.866;2022-09-12T14:55:21;3.45;;;1.48;;
26181;SDS011;13927;51.534;11.866;2022-09-12T15:00:59;2.00;;;1.38;;
26181;SDS011;13927;51.534;11.866;2022-09-12T15:03:31;1.90;;;1.30;;
26181;SDS011;13927;51.534;11.866;2022-09-12T15:06:28;3.38;;;1.70;;
26181;SDS011;13927;51.534;11.866;2022-09-12T15:08:58;3.72;;;1.40;;
26181;SDS011;13927;51.534;11.866;2022-09-12T15:11:36;1.88;;;1.40;;
26181;SDS011;13927;51.534;11.866;2022-09-12T15:14:20;3.03;;;1.65;;
26181;SDS011;13927;51.534;11.866;2022-09-12T15:16:46;3.10;;;1.67;;
26181;SDS011;13927;51.534;11.866;2022-09-12T15:19:11;2.28;;;1.25;;
26181;SDS011;13927;51.534;11.866;2022-09-12T15:21:38;2.75;;;1.70;;
26181;SDS011;13927;51.534;11.866;2022-09-12T15:24:03;2.55;;;1.50;;
26181;SDS011;13927;51.534;11.866;2022-09-12T15:26:29;1.73;;;1.55;;
26181;SDS011;13927;51.534;11.866;2022-09-12T15:28:55;2.33;;;1.60;;
26181;SDS011;13927;51.534;11.866;2022-09-12T15:33:53;2.47;;;1.75;;
26181;SDS011;13927;51.534;11.866;2022-09-12T15:36:21;1.73;;;1.60;;
26181;SDS011;13927;51.534;11.866;2022-09-12T15:38:53;1.42;;;1.33;;
26181;SDS011;13927;51.534;11.866;2022-09-12T15:41:27;1.92;;;1.45;;
26181;SDS011;13927;51.534;11.866;2022-09-12T15:43:57;2.85;;;1.92;;
26181;SDS011;13927;51.534;11.866;2022-09-12T15:46:23;2.20;;;1.50;;
26181;SDS011;13927;51.534;11.866;2022-09-12T15:48:48;3.40;;;1.58;;
26181;SDS011;13927;51.534;11.866;2022-09-12T15:51:15;2.92;;;1.55;;
26181;SDS011;13927;51.534;11.866;2022-09-12T15:53:43;2.20;;;2.00;;
26181;SDS011;13927;51.534;11.866;2022-09-12T15:56:13;2.10;;;1.77;;
26181;SDS011;13927;51.534;11.866;2022-09-12T15:58:59;2.53;;;1.60;;
26181;SDS011;13927;51.534;11.866;2022-09-12T16:01:25;2.45;;;1.70;;
26181;SDS011;13927;51.534;11.866;2022-09-12T16:03:52;1.83;;;1.40;;
26181;SDS011;13927;51.534;11.866;2022-09-12T16:06:18;1.95;;;1.70;;
26181;SDS011;13927;51.534;11.866;2022-09-12T16:08:43;1.98;;;1.58;;
26181;SDS011;13927;51.534;11.866;2022-09-12T16:11:14;1.50;;;1.40;;
26181;SDS011;13927;51.534;11.866;2022-09-12T16:13:50;3.75;;;1.70;;
26181;SDS011;13927;51.534;11.866;2022-09-12T16:16:18;1.77;;;1.60;;
26181;SDS011;13927;51.534;11.866;2022-09-12T16:18:44;2.13;;;1.63;;
26181;SDS011;13927;51.534;11.866;2022-09-12T16:21:10;3.47;;;1.40;;
26181;SDS011;13927;51.534;11.866;2022-09-12T16:23:36;1.90;;;1.63;;
26181;SDS011;13927;51.534;11.866;2022-09-12T16:26:03;4.68;;;1.83;;
26181;SDS011;13927;51.534;11.866;2022-09-12T16:28:31;2.15;;;1.48;;
26181;SDS011;13927;51.534;11.866;2022-09-12T16:30:58;2.17;;;1.65;;
26181;SDS011;13927;51.534;11.866;2022-09-12T16:33:26;1.73;;;1.60;;
26181;SDS011;13927;51.534;11.866;2022-09-12T16:35:59;3.47;;;1.73;;
26181;SDS011;13927;51.534;11.866;2022-09-12T16:38:34;2.92;;;1.80;;
26181;SDS011;13927;51.534;11.866;2022-09-12T16:41:08;1.73;;;1.50;;
26181;SDS011;13927;51.534;11.866;2022-09-12T16:43:34;2.35;;;1.83;;
26181;SDS011;13927;51.534;11.866;2022-09-12T16:46:05;3.72;;;1.85;;
26181;SDS011;13927;51.534;11.866;2022-09-12T16:48:43;2.67;;;1.50;;
26181;SDS011;13927;51.534;11.866;2022-09-12T16:51:13;1.80;;;1.50;;
26181;SDS011;13927;51.534;11.866;2022-09-12T16:53:41;3.00;;;1.73;;
26181;SDS011;13927;51.534;11.866;2022-09-12T16:56:10;1.90;;;1.60;;
26181;SDS011;13927;51.534;11.866;2022-09-12T16:58:41;4.90;;;2.08;;
26181;SDS011;13927;51.534;11.866;2022-09-12T17:03:38;3.17;;;1.88;;
26181;SDS011;13927;51.534;11.866;2022-09-12T17:06:05;2.08;;;1.70;;
26181;SDS011;13927;51.534;11.866;2022-09-12T17:08:34;1.90;;;1.70;;
26181;SDS011;13927;51.534;11.866;2022-09-12T17:11:10;1.90;;;1.67;;
26181;SDS011;13927;51.534;11.866;2022-09-12T17:13:39;1.77;;;1.58;;
26181;SDS011;13927;51.534;11.866;2022-09-12T17:16:05;3.20;;;1.60;;
26181;SDS011;13927;51.534;11.866;2022-09-12T17:18:35;2.15;;;1.88;;
26181;SDS011;13927;51.534;11.866;2022-09-12T17:21:02;2.35;;;1.95;;
26181;SDS011;13927;51.534;11.866;2022-09-12T17:23:30;2.10;;;1.90;;
26181;SDS011;13927;51.534;11.866;2022-09-12T17:25:56;2.17;;;1.60;;
26181;SDS011;13927;51.534;11.866;2022-09-12T17:28:22;3.20;;;1.80;;
26181;SDS011;13927;51.534;11.866;2022-09-12T17:30:55;2.45;;;2.15;;
26181;SDS011;13927;51.534;11.866;2022-09-12T17:33:28;3.10;;;1.77;;
26181;SDS011;13927;51.534;11.866;2022-09-12T17:35:54;2.60;;;1.75;;
26181;SDS011;13927;51.534;11.866;2022-09-12T17:38:26;3.85;;;2.00;;
26181;SDS011;13927;51.534;11.866;2022-09-12T17:40:52;4.65;;;2.03;;
26181;SDS011;13927;51.534;11.866;2022-09-12T17:43:18;5.53;;;2.45;;
26181;SDS011;13927;51.534;11.866;2022-09-12T17:45:43;3.20;;;2.10;;
26181;SDS011;13927;51.534;11.866;2022-09-12T17:48:22;3.20;;;2.20;;
26181;SDS011;13927;51.534;11.866;2022-09-12T17:50:48;4.07;;;1.92;;
26181;SDS011;13927;51.534;11.866;2022-09-12T17:53:14;2.80;;;1.98;;
26181;SDS011;13927;51.534;11.866;2022-09-12T17:55:41;2.90;;;1.67;;
26181;SDS011;13927;51.534;11.866;2022-09-12T17:58:06;3.83;;;2.15;;
26181;SDS011;13927;51.534;11.866;2022-09-12T18:00:32;3.63;;;2.42;;
26181;SDS011;13927;51.534;11.866;2022-09-12T18:03:19;2.83;;;2.38;;